createdAt,value
2022-08-29T06:54:44.246Z,52.62
2022-08-29T06:55:44.915Z,50.24
2022-08-29T06:56:44.535Z,49.55
2022-08-29T06:57:44.487Z,50.62
2022-08-29T06:58:44.482Z,53.34
2022-08-29T06:59:44.509Z,54.47
2022-08-29T07:00:49.030Z,52.97
2022-08-29T07:01:44.499Z,54.39
2022-08-29T07:02:44.490Z,52.84
2022-08-29T07:03:44.447Z,51.69
2022-08-29T07:04:44.392Z,52.02
2022-08-29T07:05:44.587Z,51.89
2022-08-29T07:06:44.859Z,51.52
2022-08-29T07:07:44.514Z,53.59
2022-08-29T07:08:55.512Z,56.05
2022-08-29T07:09:44.349Z,56.63
2022-08-29T07:10:44.710Z,60.65
2022-08-29T07:11:44.319Z,63.79
2022-08-29T07:12:44.449Z,66.28
2022-08-29T07:13:44.287Z,65.44
2022-08-29T07:14:44.315Z,65.58
2022-08-29T07:15:44.339Z,63.75
2022-08-29T07:16:44.264Z,59.53
2022-08-29T07:17:44.249Z,59.13
2022-08-29T07:18:44.238Z,60.21
2022-08-29T07:19:44.220Z,57.84
2022-08-29T07:20:44.224Z,55.88
2022-08-29T07:21:44.190Z,53.59
2022-08-29T07:22:44.193Z,54.17
2022-08-29T07:23:44.195Z,51.82
2022-08-29T07:24:44.140Z,50.82
2022-08-29T07:25:44.204Z,52.87
2022-08-29T07:26:44.143Z,53.17
2022-08-29T07:27:44.116Z,54.68
2022-08-29T07:28:46.171Z,57.39
2022-08-29T07:30:19.422Z,57.57
2022-08-29T07:30:44.520Z,56.34
2022-08-29T07:31:44.277Z,56.01
2022-08-29T07:32:44.076Z,55.91
2022-08-29T07:35:31.836Z,55.73
2022-08-29T07:36:31.794Z,56.48
2022-08-29T07:37:31.852Z,55.68
2022-08-29T07:38:31.704Z,53.44
2022-08-29T07:39:31.710Z,53.17
2022-08-29T07:40:31.729Z,55.78
2022-08-29T07:41:31.665Z,56.79
2022-08-29T07:42:31.935Z,56.69
2022-08-29T07:43:31.798Z,56.08
2022-08-29T07:44:34.349Z,54.88
2022-08-29T07:45:31.582Z,55.38
2022-08-29T07:46:31.709Z,58.27
2022-08-29T07:47:31.586Z,55.91
2022-08-29T07:48:31.517Z,55.35
2022-08-29T07:49:40.647Z,56.29
2022-08-29T07:50:31.502Z,61.10
2022-08-29T07:51:31.488Z,63.06
2022-08-29T07:52:31.489Z,65.24
2022-08-29T07:53:31.469Z,65.57
2022-08-29T07:54:31.451Z,63.50
2022-08-29T07:55:31.438Z,62.81
2022-08-29T07:56:34.534Z,59.08
2022-08-29T07:57:31.435Z,61.20
2022-08-29T07:58:31.417Z,60.60
2022-08-29T07:59:31.398Z,60.94
2022-08-29T08:00:31.376Z,61.70
2022-08-29T08:01:31.387Z,60.52
2022-08-29T08:02:31.465Z,62.83
2022-08-29T08:03:31.335Z,63.93
2022-08-29T08:04:31.322Z,62.83
2022-08-29T08:05:31.323Z,62.87
2022-08-29T08:06:31.295Z,61.66
2022-08-29T08:07:31.327Z,59.26
2022-08-29T08:08:31.260Z,61.63
2022-08-29T08:09:32.382Z,61.93
2022-08-29T08:10:32.375Z,60.74
2022-08-29T08:11:32.400Z,58.80
2022-08-29T08:12:32.397Z,57.97
2022-08-29T08:13:32.340Z,58.44
2022-08-29T08:14:35.231Z,59.43
2022-08-29T08:15:32.331Z,60.29
2022-08-29T08:16:32.324Z,61.76
2022-08-29T08:17:32.297Z,62.77
2022-08-29T08:18:32.295Z,62.90
2022-08-29T08:19:32.262Z,63.23
2022-08-29T08:20:33.288Z,64.20
2022-08-29T08:21:32.254Z,63.96
2022-08-29T08:22:32.640Z,64.81
2022-08-29T08:23:33.251Z,61.83
2022-08-29T08:24:32.928Z,60.57
2022-08-29T08:25:32.249Z,60.27
2022-08-29T08:26:32.188Z,59.46
2022-08-29T08:27:32.307Z,59.16
2022-08-29T08:28:32.235Z,59.76
2022-08-29T08:29:32.199Z,61.69
2022-08-29T08:30:35.532Z,64.17
2022-08-29T08:31:32.226Z,64.01
2022-08-29T08:32:32.217Z,60.35
2022-08-29T08:33:35.000Z,59.97
2022-08-29T08:34:35.662Z,61.82
2022-08-29T08:35:32.092Z,61.86
2022-08-29T08:36:32.069Z,60.22
2022-08-29T08:37:32.099Z,60.15
2022-08-29T08:38:32.049Z,59.11
2022-08-29T08:39:32.050Z,59.48
2022-08-29T08:40:32.139Z,59.08
2022-08-29T08:41:32.021Z,58.48
2022-08-29T08:42:32.038Z,58.53
2022-08-29T08:43:32.000Z,56.82
2022-08-29T08:44:35.048Z,58.95
2022-08-29T08:45:31.966Z,59.23
2022-08-29T08:46:32.027Z,56.29
2022-08-29T08:47:33.395Z,55.99
2022-08-29T08:48:31.950Z,55.55
2022-08-29T08:49:31.920Z,54.43
2022-08-29T08:50:31.909Z,54.75
2022-08-29T08:51:31.936Z,55.73
2022-08-29T08:52:31.881Z,56.41
2022-08-29T08:53:32.091Z,53.50
2022-08-29T08:54:31.914Z,54.65
2022-08-29T08:55:31.860Z,55.03
2022-08-29T08:56:31.841Z,54.30
2022-08-29T08:57:31.880Z,55.78
2022-08-29T08:58:31.875Z,55.32
2022-08-29T08:59:31.861Z,55.43
2022-08-29T09:00:31.802Z,53.30
2022-08-29T09:01:31.796Z,53.90
2022-08-29T09:02:31.841Z,54.10
2022-08-29T09:03:31.920Z,51.97
2022-08-29T09:04:31.726Z,52.29
2022-08-29T09:05:31.707Z,52.97
2022-08-29T09:06:31.699Z,51.87
2022-08-29T09:07:31.705Z,52.19
2022-08-29T09:08:31.675Z,53.25
2022-08-29T09:09:31.666Z,54.55
2022-08-29T09:10:31.647Z,55.33
2022-08-29T09:11:31.652Z,54.96
2022-08-29T09:12:31.644Z,54.17
2022-08-29T09:13:31.634Z,56.26
2022-08-29T09:14:31.659Z,56.51
2022-08-29T09:15:32.827Z,56.10
2022-08-29T09:16:31.661Z,56.10
2022-08-29T09:17:31.753Z,56.06
2022-08-29T09:18:32.026Z,57.22
2022-08-29T09:19:31.585Z,59.11
2022-08-29T09:20:31.557Z,59.79
2022-08-29T09:21:44.411Z,58.68
2022-08-29T09:22:33.551Z,61.05
2022-08-29T09:23:31.543Z,60.78
2022-08-29T09:24:31.500Z,59.88
2022-08-29T09:25:31.534Z,61.39
2022-08-29T09:26:31.465Z,60.74
2022-08-29T09:27:31.864Z,61.56
2022-08-29T09:28:31.487Z,59.22
2022-08-29T09:29:31.473Z,58.15
2022-08-29T09:30:31.420Z,58.45
2022-08-29T09:31:31.453Z,59.13
2022-08-29T09:32:33.955Z,57.39
2022-08-29T09:33:35.641Z,56.82
2022-08-29T09:34:45.188Z,57.72
2022-08-29T09:39:39.880Z,60.35
2022-08-29T09:40:39.174Z,58.74
2022-08-29T09:41:40.466Z,59.34
2022-08-29T09:42:41.302Z,58.76
2022-08-29T09:43:40.400Z,58.87
2022-08-29T10:09:37.328Z,50.72
2022-08-29T10:10:38.832Z,49.74
2022-08-29T10:11:39.510Z,47.24
2022-08-29T10:12:37.784Z,47.72
2022-08-29T10:13:37.488Z,49.87
2022-08-29T10:48:12.155Z,46.56
2022-08-29T10:49:11.289Z,47.54
2022-08-29T10:50:21.870Z,46.89
2022-08-29T10:51:11.408Z,46.55
2022-08-29T10:52:11.131Z,45.39
2022-08-29T10:53:11.096Z,44.96
2022-08-29T10:54:11.093Z,43.93
2022-08-29T10:55:11.053Z,44.46
2022-08-29T10:56:11.104Z,44.92
2022-08-29T10:57:11.030Z,45.52
2022-08-29T10:58:12.482Z,44.08
2022-08-29T10:59:11.015Z,44.98
2022-08-29T11:00:11.009Z,43.66
2022-08-29T11:01:11.000Z,43.46
2022-08-29T11:02:11.019Z,40.08
2022-08-29T11:03:10.998Z,40.18
2022-08-29T11:04:12.144Z,39.29
2022-08-29T11:05:12.073Z,39.39
2022-08-29T11:06:12.073Z,41.08
2022-08-29T11:07:12.090Z,40.58
2022-08-29T11:08:16.008Z,41.61
2022-08-29T11:09:12.039Z,40.32
2022-08-29T11:10:12.015Z,42.61
2022-08-29T11:11:12.011Z,44.64
2022-08-29T11:12:12.511Z,46.66
2022-08-29T11:13:11.996Z,47.46
2022-08-29T11:14:11.992Z,47.69
2022-08-29T11:15:11.995Z,47.67
2022-08-29T11:16:12.004Z,41.93
2022-08-29T11:17:11.941Z,40.53
2022-08-29T11:18:12.006Z,40.50
2022-08-29T11:19:11.925Z,40.44
2022-08-29T11:20:11.921Z,38.93
2022-08-29T11:21:12.023Z,38.59
2022-08-29T11:22:11.925Z,39.09
2022-08-29T11:23:11.871Z,38.21
2022-08-29T11:24:11.866Z,40.28
2022-08-29T11:25:11.905Z,39.76
2022-08-29T11:26:11.858Z,40.26
2022-08-29T11:27:11.899Z,39.15
2022-08-29T11:28:11.889Z,38.26
2022-08-29T11:29:11.829Z,39.35
2022-08-29T11:30:11.823Z,37.75
2022-08-29T11:31:11.865Z,38.56
2022-08-29T11:32:11.846Z,39.40
2022-08-29T11:33:11.863Z,41.80
2022-08-29T11:34:11.781Z,40.40
2022-08-29T11:35:11.744Z,40.40
2022-08-29T11:36:11.798Z,41.09
2022-08-29T11:37:11.749Z,42.61
2022-08-29T11:38:11.749Z,43.81
2022-08-29T11:39:11.867Z,44.35
2022-08-29T11:40:11.729Z,43.77
2022-08-29T11:41:28.075Z,44.49
2022-08-29T11:42:13.765Z,45.72
2022-08-29T11:43:12.403Z,45.75
2022-08-29T11:44:11.634Z,45.48
2022-08-29T11:45:11.872Z,44.57
2022-08-29T11:46:11.656Z,45.59
2022-08-29T11:47:11.666Z,44.71
2022-08-29T11:48:11.650Z,43.89
2022-08-29T11:49:11.668Z,42.54
2022-08-29T11:50:11.587Z,42.99
2022-08-29T11:51:11.582Z,43.35
2022-08-29T11:52:11.597Z,43.43
2022-08-29T11:53:16.763Z,43.83
2022-08-29T11:54:11.675Z,42.63
2022-08-29T11:55:11.525Z,42.29
2022-08-29T11:56:11.517Z,42.65
2022-08-29T11:57:11.507Z,45.73
2022-08-29T11:58:12.040Z,44.25
2022-08-29T11:59:11.479Z,45.00
2022-08-29T12:00:11.479Z,45.45
2022-08-29T12:01:12.247Z,44.99
2022-08-29T12:02:11.625Z,44.45
2022-08-29T12:03:25.233Z,42.81
2022-08-29T12:04:11.465Z,42.49
2022-08-29T12:05:11.401Z,40.30
2022-08-29T12:06:11.450Z,40.34
2022-08-29T12:07:11.393Z,42.11
2022-08-29T12:08:35.571Z,43.41
2022-08-29T12:09:13.677Z,43.29
2022-08-29T12:10:12.405Z,43.59
2022-08-29T12:11:11.340Z,42.75
2022-08-29T12:12:11.331Z,42.55
2022-08-29T12:13:11.358Z,43.52
2022-08-29T12:14:11.340Z,42.59
2022-08-29T12:15:11.302Z,42.49
2022-08-29T12:16:11.379Z,41.08
2022-08-29T12:17:11.300Z,42.33
2022-08-29T12:18:11.284Z,44.69
2022-08-29T12:19:11.283Z,44.03
2022-08-29T12:20:11.292Z,44.73
2022-08-29T12:21:11.273Z,44.35
2022-08-29T12:22:22.151Z,44.15
2022-08-29T12:23:11.338Z,45.87
2022-08-29T12:24:11.247Z,45.42
2022-08-29T12:25:11.219Z,46.31
2022-08-29T12:26:22.044Z,44.85
2022-08-29T12:27:15.306Z,44.99
2022-08-29T12:28:11.149Z,44.53
2022-08-29T12:29:11.211Z,41.89
2022-08-29T12:30:11.147Z,41.00
2022-08-29T12:31:11.513Z,41.00
2022-08-29T12:32:22.710Z,40.00
2022-08-29T12:33:12.150Z,41.99
2022-08-29T12:34:11.106Z,41.09
2022-08-29T12:35:11.228Z,41.60
2022-08-29T12:36:11.074Z,42.17
2022-08-29T12:37:11.060Z,40.70
2022-08-29T12:38:11.093Z,42.17
2022-08-29T12:39:11.066Z,39.97
2022-08-29T12:40:11.393Z,40.74
2022-08-29T12:41:11.036Z,38.73
2022-08-29T12:42:11.017Z,39.45
2022-08-29T12:43:11.057Z,40.18
2022-08-29T12:44:10.991Z,40.34
2022-08-29T12:45:11.020Z,41.38
2022-08-29T12:46:10.957Z,41.95
2022-08-29T12:47:10.982Z,40.74
2022-08-29T12:48:10.981Z,40.22
2022-08-29T12:49:10.931Z,40.42
2022-08-29T12:50:10.980Z,40.11
2022-08-29T12:51:10.928Z,40.22
2022-08-29T12:52:10.901Z,40.70
2022-08-29T12:53:10.885Z,39.90
2022-08-29T12:54:10.869Z,40.03
2022-08-29T12:55:13.143Z,40.84
2022-08-29T12:56:10.862Z,41.42
2022-08-29T12:57:10.871Z,41.09
2022-08-29T12:58:10.879Z,42.09
2022-08-29T12:59:10.885Z,40.41
2022-08-29T13:00:10.807Z,41.06
2022-08-29T13:01:10.894Z,42.61
2022-08-29T13:02:10.820Z,44.09
2022-08-29T13:03:15.251Z,45.83
2022-08-29T13:04:10.786Z,46.85
2022-08-29T13:05:10.760Z,46.85
2022-08-29T13:06:10.779Z,46.55
2022-08-29T13:07:10.789Z,47.42
2022-08-29T13:08:13.087Z,45.66
2022-08-29T13:09:10.774Z,45.52
2022-08-29T13:10:11.723Z,45.10
2022-08-29T13:11:10.758Z,44.78
2022-08-29T13:12:10.693Z,44.26
2022-08-29T13:13:10.688Z,42.55
2022-08-29T13:14:10.689Z,42.21
2022-08-29T13:15:10.671Z,42.35
2022-08-29T13:16:10.741Z,41.93
2022-08-29T13:17:10.641Z,41.36
2022-08-29T13:18:10.620Z,41.95
2022-08-29T13:19:11.793Z,41.83
2022-08-29T13:20:10.619Z,41.55
2022-08-29T13:21:10.612Z,40.74
2022-08-29T13:22:10.617Z,40.42
2022-08-29T13:23:10.569Z,41.09
2022-08-29T13:24:10.570Z,43.45
2022-08-29T13:25:10.553Z,43.03
2022-08-29T13:26:11.158Z,41.91
2022-08-29T13:27:10.564Z,41.99
2022-08-29T13:28:10.530Z,41.95
2022-08-29T13:29:10.520Z,41.77
2022-08-29T13:30:10.482Z,42.13
2022-08-29T13:31:10.553Z,41.31
2022-08-29T13:32:10.521Z,40.78
2022-08-29T13:33:10.472Z,42.49
2022-08-29T13:34:10.460Z,43.65
2022-08-29T13:35:11.679Z,44.99
2022-08-29T13:36:10.452Z,46.33
2022-08-29T13:37:15.745Z,45.39
2022-08-29T13:38:10.407Z,44.84
2022-08-29T13:39:10.407Z,44.53
2022-08-29T13:40:10.604Z,44.31
2022-08-29T13:41:10.393Z,43.37
2022-08-29T13:42:10.364Z,41.97
2022-08-29T13:43:10.383Z,41.95
2022-08-29T13:44:10.344Z,42.55
2022-08-29T13:45:10.369Z,41.46
2022-08-29T13:46:14.513Z,41.83
2022-08-29T13:47:10.320Z,41.75
2022-08-29T13:48:10.325Z,40.84
2022-08-29T13:49:10.310Z,39.97
2022-08-29T13:50:10.290Z,42.15
2022-08-29T13:51:11.265Z,40.74
2022-08-29T13:52:10.270Z,40.34
2022-08-29T13:53:10.437Z,42.25
2022-08-29T13:54:10.231Z,41.95
2022-08-29T13:55:10.257Z,40.62
2022-08-29T13:56:10.221Z,41.77
2022-08-29T13:57:10.219Z,41.74
2022-08-29T13:58:10.235Z,41.04
2022-08-29T13:59:10.184Z,40.74
2022-08-29T14:00:10.174Z,42.05
2022-08-29T14:02:11.192Z,41.79
2022-08-29T14:03:10.259Z,40.41
2022-08-29T14:04:34.554Z,41.53
2022-08-29T14:05:10.142Z,42.03
2022-08-29T14:06:10.127Z,42.72
2022-08-29T14:07:10.118Z,42.47
2022-08-29T14:08:10.097Z,44.42
2022-08-29T14:09:10.114Z,44.37
2022-08-29T14:10:10.081Z,45.14
2022-08-29T14:11:11.255Z,45.74
2022-08-29T14:12:10.051Z,45.32
2022-08-29T14:13:10.051Z,45.02
2022-08-29T14:14:10.078Z,44.70
2022-08-29T14:15:10.127Z,44.46
2022-08-29T14:16:10.029Z,44.54
2022-08-29T14:17:10.022Z,44.54
2022-08-29T14:18:10.003Z,43.80
2022-08-29T14:19:10.033Z,42.91
2022-08-29T14:20:10.143Z,42.71
2022-08-29T14:21:09.959Z,41.93
2022-08-29T14:22:09.957Z,42.41
2022-08-29T14:23:09.944Z,42.21
2022-08-29T14:24:09.960Z,42.72
2022-08-29T14:25:09.926Z,43.96
2022-08-29T14:26:09.894Z,43.54
2022-08-29T14:27:09.894Z,41.83
2022-08-29T14:28:09.883Z,43.20
2022-08-29T14:29:09.875Z,43.50
2022-08-29T14:30:10.664Z,43.08
2022-08-29T14:31:09.893Z,41.39
2022-08-29T14:32:09.833Z,41.79
2022-08-29T14:33:09.834Z,42.09
2022-08-29T14:34:09.824Z,43.59
2022-08-29T14:35:09.840Z,44.54
2022-08-29T14:36:09.807Z,44.70
2022-08-29T14:37:09.787Z,44.60
2022-08-29T14:38:11.302Z,44.96
2022-08-29T14:39:09.797Z,45.98
2022-08-29T14:40:09.858Z,45.54
2022-08-29T14:41:09.753Z,44.74
2022-08-29T14:42:09.750Z,44.72
2022-08-29T14:43:09.731Z,44.60
2022-08-29T14:44:10.722Z,45.40
2022-08-29T14:45:09.756Z,45.52
2022-08-29T14:46:09.762Z,45.74
2022-08-29T14:47:09.737Z,45.74
2022-08-29T14:48:09.692Z,47.11
2022-08-29T14:49:09.679Z,45.67
2022-08-29T14:50:09.674Z,45.30
2022-08-29T14:51:09.708Z,45.72
2022-08-29T14:52:09.657Z,45.30
2022-08-29T14:53:09.630Z,45.40
2022-08-29T14:54:09.635Z,46.17
2022-08-29T14:55:09.597Z,45.63
2022-08-29T14:56:11.800Z,44.81
2022-08-29T14:57:09.597Z,44.52
2022-08-29T14:58:09.590Z,44.79
2022-08-29T14:59:09.579Z,43.90
2022-08-29T15:00:09.560Z,44.62
2022-08-29T15:01:09.669Z,44.29
2022-08-29T15:02:09.634Z,44.27
2022-08-29T15:03:09.601Z,44.89
2022-08-29T15:04:09.521Z,44.99
2022-08-29T15:05:09.508Z,44.59
2022-08-29T15:06:09.541Z,44.29
2022-08-29T15:07:09.482Z,44.29
2022-08-29T15:08:13.593Z,45.09
2022-08-29T15:09:09.466Z,44.22
2022-08-29T15:10:09.486Z,44.81
2022-08-29T15:11:09.428Z,45.37
2022-08-29T15:12:09.597Z,46.30
2022-08-29T15:13:09.424Z,45.70
2022-08-29T15:14:09.423Z,45.95
2022-08-29T15:15:09.419Z,44.96
2022-08-29T15:16:09.437Z,45.45
2022-08-29T15:17:09.543Z,45.65
2022-08-29T15:18:12.279Z,44.64
2022-08-29T15:21:09.344Z,44.44
2022-08-29T15:22:09.340Z,44.96
2022-08-29T15:23:09.315Z,44.50
2022-08-29T15:24:09.292Z,44.80
2022-08-29T15:25:10.358Z,46.79
2022-08-29T15:26:09.292Z,45.78
2022-08-29T15:27:09.335Z,46.61
2022-08-29T15:28:09.285Z,45.79
2022-08-29T15:29:09.317Z,45.82
2022-08-29T15:30:09.246Z,45.64
2022-08-29T15:31:09.277Z,46.84
2022-08-29T15:32:09.217Z,46.12
2022-08-29T15:33:09.236Z,45.60
2022-08-29T15:34:09.213Z,46.01
2022-08-29T15:35:14.189Z,45.47
2022-08-29T15:36:09.167Z,46.91
2022-08-29T15:37:09.155Z,47.72
2022-08-29T15:38:09.214Z,48.94
2022-08-29T15:39:09.130Z,47.65
2022-08-29T15:40:12.926Z,48.52
2022-08-29T15:41:09.113Z,48.38
2022-08-29T15:42:09.142Z,47.75
2022-08-29T15:43:09.138Z,47.53
2022-08-29T15:44:09.088Z,46.73
2022-08-29T15:45:09.091Z,46.12
2022-08-29T15:46:09.165Z,45.79
2022-08-29T15:47:11.032Z,45.08
2022-08-29T15:48:14.296Z,45.79
2022-08-29T15:49:09.027Z,44.70
2022-08-29T15:50:09.027Z,45.54
2022-08-29T15:51:09.112Z,47.00
2022-08-29T15:52:08.994Z,48.02
2022-08-29T15:53:08.997Z,47.92
2022-08-29T15:54:08.973Z,47.53
2022-08-29T15:55:08.977Z,47.92
2022-08-29T15:56:08.963Z,47.83
2022-08-29T15:57:08.950Z,48.70
2022-08-29T15:58:08.983Z,48.10
2022-08-29T15:59:08.954Z,47.98
2022-08-29T16:00:08.901Z,47.88
2022-08-29T16:01:08.960Z,47.56
2022-08-29T16:02:08.908Z,47.78
2022-08-29T16:03:08.922Z,47.66
2022-08-29T16:04:08.891Z,47.36
2022-08-29T16:05:08.846Z,47.75
2022-08-29T16:06:08.846Z,46.86
2022-08-29T16:07:08.842Z,46.04
2022-08-29T16:08:14.770Z,47.75
2022-08-29T16:09:15.263Z,47.75
2022-08-29T16:10:10.955Z,47.88
2022-08-29T16:11:08.805Z,47.58
2022-08-29T16:12:08.770Z,47.86
2022-08-29T16:13:08.747Z,47.66
2022-08-29T16:15:09.929Z,47.28
2022-08-29T16:16:08.796Z,47.71
2022-08-29T16:17:08.715Z,48.20
2022-08-29T16:18:08.713Z,48.10
2022-08-29T16:19:09.178Z,48.10
2022-08-29T16:20:08.925Z,49.32
2022-08-29T16:21:08.653Z,48.63
2022-08-29T16:22:08.656Z,48.93
2022-08-29T16:23:08.636Z,49.12
2022-08-29T16:24:08.625Z,48.75
2022-08-29T16:25:08.662Z,49.25
2022-08-29T16:26:08.616Z,49.85
2022-08-29T16:27:08.670Z,48.94
2022-08-29T16:28:08.624Z,50.24
2022-08-29T16:29:08.759Z,49.05
2022-08-29T16:30:08.652Z,49.35
2022-08-29T16:31:08.665Z,48.65
2022-08-29T16:32:08.594Z,48.63
2022-08-29T16:33:08.536Z,48.25
2022-08-29T16:34:08.527Z,49.32
2022-08-29T16:35:08.572Z,49.32
2022-08-29T16:36:08.493Z,48.60
2022-08-29T16:37:08.491Z,49.80
2022-08-29T16:38:08.469Z,50.30
2022-08-29T16:39:08.444Z,50.00
2022-08-29T16:40:08.562Z,49.90
2022-08-29T16:41:08.496Z,50.10
2022-08-29T16:42:08.412Z,50.20
2022-08-29T16:43:08.422Z,51.25
2022-08-29T16:56:32.452Z,53.04
2022-08-29T16:57:31.225Z,51.94
2022-08-29T16:58:31.081Z,52.44
2022-08-29T16:59:31.064Z,51.75
2022-08-29T17:00:31.071Z,51.77
2022-08-29T17:01:31.099Z,51.69
2022-08-29T17:02:31.165Z,53.42
2022-08-29T17:03:31.014Z,53.22
2022-08-29T17:04:31.028Z,53.92
2022-08-29T17:05:30.981Z,53.42
2022-08-29T17:06:31.022Z,53.22
2022-08-29T17:07:30.961Z,54.22
2022-08-29T17:08:30.965Z,53.22
2022-08-29T17:09:30.939Z,53.12
2022-08-29T17:10:30.905Z,53.34
2022-08-29T17:11:30.991Z,53.22
2022-08-29T17:12:30.888Z,53.22
2022-08-29T17:13:31.094Z,53.42
2022-08-29T17:14:30.901Z,53.22
2022-08-29T17:15:30.856Z,53.22
2022-08-29T17:16:32.219Z,53.12
2022-08-29T17:17:32.023Z,53.52
2022-08-29T17:18:32.024Z,53.12
2022-08-29T17:19:33.151Z,53.22
2022-08-29T17:20:36.806Z,52.92
2022-08-29T17:21:31.995Z,53.32
2022-08-29T17:22:31.955Z,53.09
2022-08-29T17:23:31.984Z,53.12
2022-08-29T17:24:31.887Z,52.42
2022-08-29T17:25:31.939Z,53.22
2022-08-29T17:26:31.907Z,53.14
2022-08-29T17:27:31.869Z,53.52
2022-08-29T17:28:31.876Z,54.05
2022-08-29T17:29:31.857Z,53.22
2022-08-29T17:30:31.937Z,53.05
2022-08-29T17:31:31.798Z,54.05
2022-08-29T17:32:31.881Z,53.55
2022-08-29T17:33:31.778Z,54.27
2022-08-29T17:34:31.820Z,54.37
2022-08-29T17:35:31.819Z,54.47
2022-08-29T17:36:31.824Z,54.57
2022-08-29T17:37:36.245Z,55.57
2022-08-29T17:38:31.755Z,55.17
2022-08-29T17:39:31.746Z,55.98
2022-08-29T17:40:31.794Z,55.98
2022-08-29T17:41:31.743Z,55.30
2022-08-29T17:42:31.729Z,55.60
2022-08-29T17:43:31.754Z,56.43
2022-08-29T17:44:31.707Z,56.00
2022-08-29T17:45:31.629Z,56.13
2022-08-29T17:46:31.691Z,57.43
2022-08-29T17:47:31.674Z,56.70
2022-08-29T17:48:31.656Z,57.40
2022-08-29T17:49:31.641Z,57.63
2022-08-29T17:50:31.788Z,57.43
2022-08-29T17:51:31.555Z,57.83
2022-08-29T17:52:31.584Z,57.63
2022-08-29T17:53:31.537Z,58.16
2022-08-29T17:54:31.580Z,57.83
2022-08-29T17:55:31.520Z,58.36
2022-08-29T17:56:31.544Z,58.43
2022-08-29T17:57:31.461Z,57.56
2022-08-29T17:58:31.501Z,57.96
2022-08-29T17:59:31.492Z,58.66
2022-08-29T18:00:31.502Z,58.99
2022-08-29T18:01:32.221Z,58.56
2022-08-29T18:02:31.460Z,58.59
2022-08-29T18:03:32.276Z,58.76
2022-08-29T18:04:33.934Z,59.19
2022-08-29T18:05:31.974Z,58.99
2022-08-29T18:06:32.684Z,58.99
2022-08-29T18:07:32.733Z,59.39
2022-08-29T19:00:35.502Z,69.95
2022-08-29T19:01:35.488Z,70.15
2022-08-29T19:02:35.185Z,70.49
2022-08-29T19:03:34.834Z,70.26
2022-08-29T19:04:34.946Z,70.09
2022-08-29T19:05:34.633Z,70.19
2022-08-29T19:06:34.649Z,70.09
2022-08-29T19:07:34.938Z,70.59
2022-08-29T19:08:34.549Z,70.76
2022-08-29T19:09:34.635Z,70.59
2022-08-29T19:10:34.967Z,70.29
2022-08-29T19:11:34.528Z,70.39
2022-08-29T19:12:34.673Z,70.49
2022-08-29T19:13:34.612Z,70.39
2022-08-29T19:14:37.249Z,70.69
2022-08-29T19:15:34.501Z,71.06
2022-08-29T19:16:34.545Z,70.66
2022-08-29T19:17:34.425Z,70.76
2022-08-29T19:18:34.479Z,70.56
2022-08-29T19:19:34.480Z,70.76
2022-08-29T19:20:34.616Z,70.59
2022-08-29T19:21:34.367Z,70.69
2022-08-29T19:22:34.644Z,70.69
2022-08-29T19:23:34.592Z,70.53
2022-08-29T19:24:34.342Z,71.53
2022-08-29T19:25:34.385Z,71.73
2022-08-29T19:26:34.271Z,71.23
2022-08-29T19:27:43.177Z,71.33
2022-08-29T19:28:34.413Z,71.03
2022-08-29T19:29:34.304Z,71.33
2022-08-29T19:30:34.416Z,71.97
2022-08-29T19:31:34.455Z,72.08
2022-08-29T19:32:34.165Z,72.88
2022-08-29T19:33:34.182Z,72.68
2022-08-29T19:34:34.262Z,71.97
2022-08-29T20:47:14.740Z,78.39
2022-08-29T20:48:17.511Z,78.69
